sensor_id;sensor_type;location;lat;lon;timestamp;pressure;altitude;pressure_sealevel;temperature;humidity
55685;BME280;41883;49.544;8.646;2022-07-30T00:00:56;100548.50;;;19.15;nan
55685;BME280;41883;49.544;8.646;2022-07-30T00:03:21;100550.16;;;19.09;nan
55685;BME280;41883;49.544;8.646;2022-07-30T00:05:47;100541.94;;;19.04;nan
55685;BME280;41883;49.544;8.646;2022-07-30T00:08:12;100548.72;;;19.00;nan
55685;BME280;41883;49.544;8.646;2022-07-30T00:10:38;100549.75;;;18.93;nan
55685;BME280;41883;49.544;8.646;2022-07-30T00:13:04;100551.00;;;18.83;nan
55685;BME280;41883;49.544;8.646;2022-07-30T00:15:29;100544.97;;;18.75;nan
55685;BME280;41883;49.544;8.646;2022-07-30T00:17:54;100548.47;;;18.68;nan
55685;BME280;41883;49.544;8.646;2022-07-30T00:20:20;100543.94;;;18.62;nan
55685;BME280;41883;49.544;8.646;2022-07-30T00:22:45;100541.88;;;18.58;nan
55685;BME280;41883;49.544;8.646;2022-07-30T00:25:11;100536.06;;;18.54;nan
55685;BME280;41883;49.544;8.646;2022-07-30T00:27:36;100535.47;;;18.52;nan
55685;BME280;41883;49.544;8.646;2022-07-30T00:30:02;100537.72;;;18.49;nan
55685;BME280;41883;49.544;8.646;2022-07-30T00:32:28;100538.78;;;18.48;nan
55685;BME280;41883;49.544;8.646;2022-07-30T00:34:53;100535.25;;;18.47;nan
55685;BME280;41883;49.544;8.646;2022-07-30T00:37:19;100528.25;;;18.46;nan
55685;BME280;41883;49.544;8.646;2022-07-30T00:39:44;100536.47;;;18.44;nan
55685;BME280;41883;49.544;8.646;2022-07-30T00:42:09;100533.41;;;18.41;nan
55685;BME280;41883;49.544;8.646;2022-07-30T00:44:34;100531.53;;;18.35;nan
55685;BME280;41883;49.544;8.646;2022-07-30T00:47:00;100527.81;;;18.29;nan
55685;BME280;41883;49.544;8.646;2022-07-30T00:49:25;100526.38;;;18.27;nan
55685;BME280;41883;49.544;8.646;2022-07-30T00:51:50;100524.47;;;18.20;nan
55685;BME280;41883;49.544;8.646;2022-07-30T00:54:16;100517.91;;;18.16;nan
55685;BME280;41883;49.544;8.646;2022-07-30T00:56:41;100515.41;;;18.15;nan
55685;BME280;41883;49.544;8.646;2022-07-30T00:59:07;100516.66;;;18.12;nan
55685;BME280;41883;49.544;8.646;2022-07-30T01:01:32;100527.34;;;18.12;nan
55685;BME280;41883;49.544;8.646;2022-07-30T01:03:57;100520.56;;;18.10;nan
55685;BME280;41883;49.544;8.646;2022-07-30T01:06:23;100515.59;;;18.07;nan
55685;BME280;41883;49.544;8.646;2022-07-30T01:08:48;100514.56;;;18.01;nan
55685;BME280;41883;49.544;8.646;2022-07-30T01:11:14;100516.44;;;18.14;nan
55685;BME280;41883;49.544;8.646;2022-07-30T01:13:40;100512.09;;;18.06;nan
55685;BME280;41883;49.544;8.646;2022-07-30T01:16:05;100505.50;;;18.02;nan
55685;BME280;41883;49.544;8.646;2022-07-30T01:18:32;100505.06;;;17.98;nan
55685;BME280;41883;49.544;8.646;2022-07-30T01:21:20;100505.28;;;17.90;nan
55685;BME280;41883;49.544;8.646;2022-07-30T01:23:49;100504.41;;;17.83;nan
55685;BME280;41883;49.544;8.646;2022-07-30T01:26:19;100508.09;;;17.82;nan
55685;BME280;41883;49.544;8.646;2022-07-30T01:28:49;100507.91;;;17.83;nan
55685;BME280;41883;49.544;8.646;2022-07-30T01:31:16;100502.09;;;17.80;nan
55685;BME280;41883;49.544;8.646;2022-07-30T01:33:44;100503.91;;;17.73;nan
55685;BME280;41883;49.544;8.646;2022-07-30T01:36:15;100508.03;;;17.69;nan
55685;BME280;41883;49.544;8.646;2022-07-30T01:38:43;100504.09;;;17.65;nan
55685;BME280;41883;49.544;8.646;2022-07-30T01:41:09;100509.41;;;17.58;nan
55685;BME280;41883;49.544;8.646;2022-07-30T01:43:35;100506.69;;;17.51;nan
55685;BME280;41883;49.544;8.646;2022-07-30T01:46:02;100514.88;;;17.43;nan
55685;BME280;41883;49.544;8.646;2022-07-30T01:48:29;100521.81;;;17.37;nan
55685;BME280;41883;49.544;8.646;2022-07-30T01:50:59;100522.44;;;17.33;nan
55685;BME280;41883;49.544;8.646;2022-07-30T01:53:29;100527.53;;;17.28;nan
55685;BME280;41883;49.544;8.646;2022-07-30T01:55:58;100521.94;;;17.23;nan
55685;BME280;41883;49.544;8.646;2022-07-30T01:58:26;100531.41;;;17.18;nan
55685;BME280;41883;49.544;8.646;2022-07-30T02:00:54;100536.09;;;17.16;nan
55685;BME280;41883;49.544;8.646;2022-07-30T02:03:20;100532.97;;;17.13;nan
55685;BME280;41883;49.544;8.646;2022-07-30T02:05:51;100541.63;;;17.15;nan
55685;BME280;41883;49.544;8.646;2022-07-30T02:08:26;100537.69;;;17.11;nan
55685;BME280;41883;49.544;8.646;2022-07-30T02:11:15;100547.31;;;17.05;nan
55685;BME280;41883;49.544;8.646;2022-07-30T02:14:01;100546.44;;;16.98;nan
55685;BME280;41883;49.544;8.646;2022-07-30T02:16:35;100552.53;;;16.92;nan
55685;BME280;41883;49.544;8.646;2022-07-30T02:19:09;100557.44;;;16.88;nan
55685;BME280;41883;49.544;8.646;2022-07-30T02:21:38;100559.47;;;16.86;nan
55685;BME280;41883;49.544;8.646;2022-07-30T02:24:09;100559.25;;;16.81;nan
55685;BME280;41883;49.544;8.646;2022-07-30T02:26:37;100547.91;;;16.79;nan
55685;BME280;41883;49.544;8.646;2022-07-30T02:29:04;100548.56;;;16.81;nan
55685;BME280;41883;49.544;8.646;2022-07-30T02:31:31;100553.41;;;16.77;nan
55685;BME280;41883;49.544;8.646;2022-07-30T02:34:00;100556.47;;;16.74;nan
55685;BME280;41883;49.544;8.646;2022-07-30T02:36:28;100555.19;;;16.70;nan
55685;BME280;41883;49.544;8.646;2022-07-30T02:38:55;100559.28;;;16.66;nan
55685;BME280;41883;49.544;8.646;2022-07-30T02:41:23;100558.00;;;16.62;nan
55685;BME280;41883;49.544;8.646;2022-07-30T02:43:51;100564.72;;;16.58;nan
55685;BME280;41883;49.544;8.646;2022-07-30T02:46:18;100569.44;;;16.56;nan
55685;BME280;41883;49.544;8.646;2022-07-30T02:48:45;100570.00;;;16.51;nan
55685;BME280;41883;49.544;8.646;2022-07-30T02:51:15;100563.41;;;16.47;nan
55685;BME280;41883;49.544;8.646;2022-07-30T02:53:45;100573.81;;;16.42;nan
55685;BME280;41883;49.544;8.646;2022-07-30T02:56:13;100570.31;;;16.42;nan
55685;BME280;41883;49.544;8.646;2022-07-30T02:58:41;100574.66;;;16.43;nan
55685;BME280;41883;49.544;8.646;2022-07-30T03:01:08;100583.47;;;16.43;nan
55685;BME280;41883;49.544;8.646;2022-07-30T03:03:35;100575.84;;;16.40;nan
55685;BME280;41883;49.544;8.646;2022-07-30T03:06:01;100581.53;;;16.37;nan
55685;BME280;41883;49.544;8.646;2022-07-30T03:08:27;100575.78;;;16.33;nan
55685;BME280;41883;49.544;8.646;2022-07-30T03:10:55;100583.13;;;16.31;nan
55685;BME280;41883;49.544;8.646;2022-07-30T03:13:21;100575.31;;;16.30;nan
55685;BME280;41883;49.544;8.646;2022-07-30T03:15:50;100583.53;;;16.28;nan
55685;BME280;41883;49.544;8.646;2022-07-30T03:18:17;100587.66;;;16.31;nan
55685;BME280;41883;49.544;8.646;2022-07-30T03:20:48;100588.28;;;16.33;nan
55685;BME280;41883;49.544;8.646;2022-07-30T03:23:18;100593.63;;;16.33;nan
55685;BME280;41883;49.544;8.646;2022-07-30T03:25:53;100591.13;;;16.31;nan
55685;BME280;41883;49.544;8.646;2022-07-30T03:28:22;100594.84;;;16.30;nan
55685;BME280;41883;49.544;8.646;2022-07-30T03:30:49;100584.78;;;16.32;nan
55685;BME280;41883;49.544;8.646;2022-07-30T03:33:15;100590.97;;;16.33;nan
55685;BME280;41883;49.544;8.646;2022-07-30T03:35:42;100596.91;;;16.35;nan
55685;BME280;41883;49.544;8.646;2022-07-30T03:38:12;100597.94;;;16.34;nan
55685;BME280;41883;49.544;8.646;2022-07-30T03:40:40;100597.50;;;16.30;nan
55685;BME280;41883;49.544;8.646;2022-07-30T03:43:07;100593.34;;;16.28;nan
55685;BME280;41883;49.544;8.646;2022-07-30T03:45:33;100595.09;;;16.21;nan
55685;BME280;41883;49.544;8.646;2022-07-30T03:47:59;100597.72;;;16.14;nan
55685;BME280;41883;49.544;8.646;2022-07-30T03:50:26;100600.94;;;16.09;nan
55685;BME280;41883;49.544;8.646;2022-07-30T03:52:53;100604.16;;;16.05;nan
55685;BME280;41883;49.544;8.646;2022-07-30T03:55:20;100597.81;;;16.06;nan
55685;BME280;41883;49.544;8.646;2022-07-30T03:57:46;100598.28;;;16.09;nan
55685;BME280;41883;49.544;8.646;2022-07-30T04:00:14;100593.72;;;16.25;nan
55685;BME280;41883;49.544;8.646;2022-07-30T04:02:43;100600.78;;;16.32;nan
55685;BME280;41883;49.544;8.646;2022-07-30T04:05:11;100596.78;;;16.22;nan
55685;BME280;41883;49.544;8.646;2022-07-30T04:07:37;100606.88;;;16.26;nan
55685;BME280;41883;49.544;8.646;2022-07-30T04:10:03;100611.75;;;16.23;nan
55685;BME280;41883;49.544;8.646;2022-07-30T04:12:28;100610.94;;;16.22;nan
55685;BME280;41883;49.544;8.646;2022-07-30T04:14:53;100609.47;;;16.20;nan
55685;BME280;41883;49.544;8.646;2022-07-30T04:17:25;100609.66;;;16.18;nan
55685;BME280;41883;49.544;8.646;2022-07-30T04:19:54;100623.53;;;16.13;nan
55685;BME280;41883;49.544;8.646;2022-07-30T04:22:22;100622.44;;;16.08;nan
55685;BME280;41883;49.544;8.646;2022-07-30T04:24:52;100617.13;;;16.08;nan
55685;BME280;41883;49.544;8.646;2022-07-30T04:27:18;100624.94;;;16.09;nan
55685;BME280;41883;49.544;8.646;2022-07-30T04:29:45;100631.53;;;16.13;nan
55685;BME280;41883;49.544;8.646;2022-07-30T04:32:11;100618.69;;;16.17;nan
55685;BME280;41883;49.544;8.646;2022-07-30T04:34:44;100625.94;;;16.23;nan
55685;BME280;41883;49.544;8.646;2022-07-30T04:37:10;100628.22;;;16.26;nan
55685;BME280;41883;49.544;8.646;2022-07-30T04:39:35;100632.19;;;16.30;nan
55685;BME280;41883;49.544;8.646;2022-07-30T04:42:00;100636.94;;;16.35;nan
55685;BME280;41883;49.544;8.646;2022-07-30T04:44:26;100637.41;;;16.39;nan
55685;BME280;41883;49.544;8.646;2022-07-30T04:46:51;100633.72;;;16.40;nan
55685;BME280;41883;49.544;8.646;2022-07-30T04:49:17;100644.84;;;16.43;nan
55685;BME280;41883;49.544;8.646;2022-07-30T04:51:43;100644.84;;;16.43;nan
55685;BME280;41883;49.544;8.646;2022-07-30T04:54:12;100651.00;;;16.44;nan
55685;BME280;41883;49.544;8.646;2022-07-30T04:56:39;100656.34;;;16.44;nan
55685;BME280;41883;49.544;8.646;2022-07-30T04:59:05;100663.97;;;16.47;nan
55685;BME280;41883;49.544;8.646;2022-07-30T05:01:33;100663.41;;;16.51;nan
55685;BME280;41883;49.544;8.646;2022-07-30T05:04:00;100659.38;;;16.55;nan
55685;BME280;41883;49.544;8.646;2022-07-30T05:06:26;100664.78;;;16.62;nan
55685;BME280;41883;49.544;8.646;2022-07-30T05:08:52;100657.22;;;16.66;nan
55685;BME280;41883;49.544;8.646;2022-07-30T05:11:18;100658.31;;;16.71;nan
55685;BME280;41883;49.544;8.646;2022-07-30T05:13:43;100672.41;;;16.80;nan
55685;BME280;41883;49.544;8.646;2022-07-30T05:16:10;100681.13;;;16.89;nan
55685;BME280;41883;49.544;8.646;2022-07-30T05:18:36;100676.88;;;16.94;nan
55685;BME280;41883;49.544;8.646;2022-07-30T05:21:01;100672.06;;;17.05;nan
55685;BME280;41883;49.544;8.646;2022-07-30T05:23:26;100681.22;;;17.17;nan
55685;BME280;41883;49.544;8.646;2022-07-30T05:25:52;100681.31;;;17.30;nan
55685;BME280;41883;49.544;8.646;2022-07-30T05:28:17;100680.63;;;17.43;nan
55685;BME280;41883;49.544;8.646;2022-07-30T05:30:42;100689.19;;;17.60;nan
55685;BME280;41883;49.544;8.646;2022-07-30T05:33:08;100684.84;;;17.80;nan
55685;BME280;41883;49.544;8.646;2022-07-30T05:35:33;100689.34;;;18.08;nan
55685;BME280;41883;49.544;8.646;2022-07-30T05:37:59;100693.63;;;18.44;nan
55685;BME280;41883;49.544;8.646;2022-07-30T05:40:24;100687.41;;;18.85;nan
55685;BME280;41883;49.544;8.646;2022-07-30T05:42:50;100690.59;;;19.22;nan
55685;BME280;41883;49.544;8.646;2022-07-30T05:45:15;100685.25;;;19.55;nan
55685;BME280;41883;49.544;8.646;2022-07-30T05:47:41;100687.28;;;19.93;nan
55685;BME280;41883;49.544;8.646;2022-07-30T05:50:06;100683.66;;;20.32;nan
55685;BME280;41883;49.544;8.646;2022-07-30T05:52:32;100684.81;;;20.63;nan
55685;BME280;41883;49.544;8.646;2022-07-30T05:54:58;100687.97;;;20.92;nan
55685;BME280;41883;49.544;8.646;2022-07-30T05:57:23;100688.19;;;21.22;nan
55685;BME280;41883;49.544;8.646;2022-07-30T05:59:48;100687.25;;;21.67;nan
55685;BME280;41883;49.544;8.646;2022-07-30T06:02:14;100694.84;;;22.13;nan
55685;BME280;41883;49.544;8.646;2022-07-30T06:04:39;100687.34;;;22.52;nan
55685;BME280;41883;49.544;8.646;2022-07-30T06:07:05;100691.69;;;22.83;nan
55685;BME280;41883;49.544;8.646;2022-07-30T06:09:30;100696.06;;;23.15;nan
55685;BME280;41883;49.544;8.646;2022-07-30T06:11:55;100691.28;;;23.28;nan
55685;BME280;41883;49.544;8.646;2022-07-30T06:14:21;100691.88;;;23.42;nan
55685;BME280;41883;49.544;8.646;2022-07-30T06:16:46;100699.19;;;23.53;nan
55685;BME280;41883;49.544;8.646;2022-07-30T06:19:11;100700.22;;;23.64;nan
55685;BME280;41883;49.544;8.646;2022-07-30T06:21:36;100701.91;;;23.89;nan
55685;BME280;41883;49.544;8.646;2022-07-30T06:24:02;100701.41;;;24.15;nan
55685;BME280;41883;49.544;8.646;2022-07-30T06:26:27;100700.22;;;24.23;nan
55685;BME280;41883;49.544;8.646;2022-07-30T06:28:52;100706.41;;;24.35;nan
55685;BME280;41883;49.544;8.646;2022-07-30T06:31:18;100709.47;;;24.51;nan
55685;BME280;41883;49.544;8.646;2022-07-30T06:33:43;100714.59;;;24.64;nan
55685;BME280;41883;49.544;8.646;2022-07-30T06:36:08;100707.69;;;24.56;nan
55685;BME280;41883;49.544;8.646;2022-07-30T06:38:34;100707.19;;;24.59;nan
55685;BME280;41883;49.544;8.646;2022-07-30T06:40:59;100706.78;;;24.79;nan
55685;BME280;41883;49.544;8.646;2022-07-30T06:43:24;100704.78;;;25.04;nan
55685;BME280;41883;49.544;8.646;2022-07-30T06:45:50;100715.84;;;25.31;nan
55685;BME280;41883;49.544;8.646;2022-07-30T06:48:15;100713.97;;;25.65;nan
55685;BME280;41883;49.544;8.646;2022-07-30T06:50:40;100710.09;;;25.95;nan
55685;BME280;41883;49.544;8.646;2022-07-30T06:53:06;100721.69;;;26.12;nan
55685;BME280;41883;49.544;8.646;2022-07-30T06:55:31;100721.91;;;26.27;nan
55685;BME280;41883;49.544;8.646;2022-07-30T06:57:57;100732.06;;;26.37;nan
55685;BME280;41883;49.544;8.646;2022-07-30T07:00:22;100724.47;;;26.56;nan
55685;BME280;41883;49.544;8.646;2022-07-30T07:02:48;100732.28;;;26.75;nan
55685;BME280;41883;49.544;8.646;2022-07-30T07:05:13;100725.44;;;26.94;nan
55685;BME280;41883;49.544;8.646;2022-07-30T07:07:38;100724.78;;;27.14;nan
55685;BME280;41883;49.544;8.646;2022-07-30T07:10:04;100730.50;;;27.40;nan
55685;BME280;41883;49.544;8.646;2022-07-30T07:12:30;100732.03;;;27.63;nan
55685;BME280;41883;49.544;8.646;2022-07-30T07:14:55;100727.34;;;27.90;nan
55685;BME280;41883;49.544;8.646;2022-07-30T07:17:21;100729.09;;;28.12;nan
55685;BME280;41883;49.544;8.646;2022-07-30T07:19:46;100726.22;;;28.34;nan
55685;BME280;41883;49.544;8.646;2022-07-30T07:22:11;100729.47;;;28.36;nan
55685;BME280;41883;49.544;8.646;2022-07-30T07:24:36;100731.78;;;28.07;nan
55685;BME280;41883;49.544;8.646;2022-07-30T07:27:02;100730.78;;;28.23;nan
55685;BME280;41883;49.544;8.646;2022-07-30T07:29:27;100740.75;;;28.60;nan
55685;BME280;41883;49.544;8.646;2022-07-30T07:31:53;100735.69;;;28.89;nan
55685;BME280;41883;49.544;8.646;2022-07-30T07:34:18;100738.50;;;29.20;nan
55685;BME280;41883;49.544;8.646;2022-07-30T07:36:43;100730.59;;;29.49;nan
55685;BME280;41883;49.544;8.646;2022-07-30T07:39:08;100738.75;;;29.64;nan
55685;BME280;41883;49.544;8.646;2022-07-30T07:41:35;100739.31;;;29.51;nan
55685;BME280;41883;49.544;8.646;2022-07-30T07:44:01;100735.50;;;29.37;nan
55685;BME280;41883;49.544;8.646;2022-07-30T07:46:27;100744.47;;;29.07;nan
55685;BME280;41883;49.544;8.646;2022-07-30T07:48:52;100734.59;;;28.90;nan
55685;BME280;41883;49.544;8.646;2022-07-30T07:51:17;100733.69;;;28.64;nan
55685;BME280;41883;49.544;8.646;2022-07-30T07:53:42;100743.47;;;28.55;nan
55685;BME280;41883;49.544;8.646;2022-07-30T07:56:08;100739.91;;;28.49;nan
55685;BME280;41883;49.544;8.646;2022-07-30T07:58:33;100736.84;;;28.41;nan
55685;BME280;41883;49.544;8.646;2022-07-30T08:00:59;100743.47;;;28.60;nan
55685;BME280;41883;49.544;8.646;2022-07-30T08:03:24;100737.00;;;28.71;nan
55685;BME280;41883;49.544;8.646;2022-07-30T08:05:49;100735.97;;;28.98;nan
55685;BME280;41883;49.544;8.646;2022-07-30T08:08:15;100731.69;;;29.38;nan
55685;BME280;41883;49.544;8.646;2022-07-30T08:10:40;100735.50;;;29.73;nan
55685;BME280;41883;49.544;8.646;2022-07-30T08:13:05;100736.78;;;30.01;nan
55685;BME280;41883;49.544;8.646;2022-07-30T08:15:31;100734.06;;;30.11;nan
55685;BME280;41883;49.544;8.646;2022-07-30T08:17:57;100742.19;;;30.37;nan
55685;BME280;41883;49.544;8.646;2022-07-30T08:20:22;100738.47;;;30.67;nan
55685;BME280;41883;49.544;8.646;2022-07-30T08:22:49;100734.97;;;31.11;nan
55685;BME280;41883;49.544;8.646;2022-07-30T08:25:14;100739.88;;;31.53;nan
55685;BME280;41883;49.544;8.646;2022-07-30T08:27:40;100736.16;;;31.98;nan
55685;BME280;41883;49.544;8.646;2022-07-30T08:30:07;100730.50;;;32.37;nan
55685;BME280;41883;49.544;8.646;2022-07-30T08:32:34;100731.00;;;32.63;nan
55685;BME280;41883;49.544;8.646;2022-07-30T08:34:59;100733.81;;;32.96;nan
55685;BME280;41883;49.544;8.646;2022-07-30T08:37:25;100729.38;;;32.81;nan
55685;BME280;41883;49.544;8.646;2022-07-30T08:39:50;100728.66;;;32.94;nan
55685;BME280;41883;49.544;8.646;2022-07-30T08:42:15;100729.97;;;33.35;nan
55685;BME280;41883;49.544;8.646;2022-07-30T08:44:43;100723.88;;;33.71;nan
55685;BME280;41883;49.544;8.646;2022-07-30T08:47:10;100714.56;;;34.13;nan
55685;BME280;41883;49.544;8.646;2022-07-30T08:49:40;100724.78;;;34.49;nan
55685;BME280;41883;49.544;8.646;2022-07-30T08:52:06;100718.63;;;35.16;nan
55685;BME280;41883;49.544;8.646;2022-07-30T08:54:33;100723.03;;;35.71;nan
55685;BME280;41883;49.544;8.646;2022-07-30T08:56:59;100720.84;;;35.99;nan
55685;BME280;41883;49.544;8.646;2022-07-30T08:59:25;100714.69;;;35.93;nan
55685;BME280;41883;49.544;8.646;2022-07-30T09:01:50;100723.44;;;36.44;nan
55685;BME280;41883;49.544;8.646;2022-07-30T09:04:16;100717.97;;;36.70;nan
55685;BME280;41883;49.544;8.646;2022-07-30T09:06:41;100718.13;;;37.00;nan
55685;BME280;41883;49.544;8.646;2022-07-30T09:09:07;100718.47;;;36.98;nan
55685;BME280;41883;49.544;8.646;2022-07-30T09:11:35;100721.38;;;37.28;nan
55685;BME280;41883;49.544;8.646;2022-07-30T09:14:08;100721.06;;;37.21;nan
55685;BME280;41883;49.544;8.646;2022-07-30T09:16:34;100717.03;;;36.66;nan
55685;BME280;41883;49.544;8.646;2022-07-30T09:19:11;100714.22;;;36.40;nan
55685;BME280;41883;49.544;8.646;2022-07-30T09:21:36;100709.38;;;35.66;nan
55685;BME280;41883;49.544;8.646;2022-07-30T09:24:06;100714.56;;;34.77;nan
55685;BME280;41883;49.544;8.646;2022-07-30T09:26:57;100710.56;;;33.64;nan
55685;BME280;41883;49.544;8.646;2022-07-30T09:29:27;100711.91;;;32.58;nan
55685;BME280;41883;49.544;8.646;2022-07-30T09:32:03;100720.66;;;31.88;nan
55685;BME280;41883;49.544;8.646;2022-07-30T09:34:37;100711.00;;;31.37;nan
55685;BME280;41883;49.544;8.646;2022-07-30T09:37:15;100718.75;;;30.85;nan
55685;BME280;41883;49.544;8.646;2022-07-30T09:39:41;100715.41;;;31.91;nan
55685;BME280;41883;49.544;8.646;2022-07-30T09:44:42;100620.31;;;33.02;nan
55685;BME280;41883;49.544;8.646;2022-07-30T09:47:08;100637.38;;;32.23;nan
55685;BME280;41883;49.544;8.646;2022-07-30T09:49:33;100627.72;;;31.83;nan
55685;BME280;41883;49.544;8.646;2022-07-30T09:54:44;100622.09;;;33.12;nan
55685;BME280;41883;49.544;8.646;2022-07-30T09:57:10;100628.94;;;34.25;nan
55685;BME280;41883;49.544;8.646;2022-07-30T09:59:35;100575.53;;;33.95;nan
55685;BME280;41883;49.544;8.646;2022-07-30T10:02:00;100612.31;;;32.35;nan
55685;BME280;41883;49.544;8.646;2022-07-30T10:04:27;100630.13;;;32.32;nan
55685;BME280;41883;49.544;8.646;2022-07-30T10:06:53;100622.94;;;33.26;nan
55685;BME280;41883;49.544;8.646;2022-07-30T10:09:33;100617.22;;;33.69;nan
55685;BME280;41883;49.544;8.646;2022-07-30T10:12:04;100614.00;;;34.31;nan
55685;BME280;41883;49.544;8.646;2022-07-30T10:14:31;100613.91;;;33.53;nan
55685;BME280;41883;49.544;8.646;2022-07-30T10:16:58;100615.72;;;32.65;nan
55685;BME280;41883;49.544;8.646;2022-07-30T10:19:23;100689.53;;;32.08;nan
55685;BME280;41883;49.544;8.646;2022-07-30T10:21:49;100601.97;;;31.36;nan
55685;BME280;41883;49.544;8.646;2022-07-30T10:24:18;100600.75;;;31.52;nan
55685;BME280;41883;49.544;8.646;2022-07-30T10:26:48;100607.59;;;31.49;nan
55685;BME280;41883;49.544;8.646;2022-07-30T10:29:15;100597.28;;;30.78;nan
55685;BME280;41883;49.544;8.646;2022-07-30T10:31:45;100589.03;;;29.99;nan
55685;BME280;41883;49.544;8.646;2022-07-30T10:34:12;100585.66;;;29.32;nan
55685;BME280;41883;49.544;8.646;2022-07-30T10:39:06;100584.81;;;30.22;nan
55685;BME280;41883;49.544;8.646;2022-07-30T10:47:18;100641.03;;;37.38;nan
55685;BME280;41883;49.544;8.646;2022-07-30T10:50:24;100597.66;;;37.09;nan
55685;BME280;41883;49.544;8.646;2022-07-30T10:52:57;100683.66;;;34.72;nan
55685;BME280;41883;49.544;8.646;2022-07-30T10:55:26;100677.03;;;33.81;nan
55685;BME280;41883;49.544;8.646;2022-07-30T10:58:14;100595.00;;;35.65;nan
55685;BME280;41883;49.544;8.646;2022-07-30T11:05:36;100592.00;;;35.92;nan
55685;BME280;41883;49.544;8.646;2022-07-30T11:08:27;100588.81;;;36.69;nan
55685;BME280;41883;49.544;8.646;2022-07-30T11:10:53;100649.81;;;38.59;nan
55685;BME280;41883;49.544;8.646;2022-07-30T11:13:23;100663.56;;;40.08;nan
55685;BME280;41883;49.544;8.646;2022-07-30T11:16:04;100669.94;;;39.97;nan
55685;BME280;41883;49.544;8.646;2022-07-30T11:18:29;100664.13;;;40.95;nan
55685;BME280;41883;49.544;8.646;2022-07-30T11:21:14;100659.06;;;42.43;nan
55685;BME280;41883;49.544;8.646;2022-07-30T11:23:41;100659.50;;;43.27;nan
55685;BME280;41883;49.544;8.646;2022-07-30T11:26:08;100657.16;;;42.87;nan
55685;BME280;41883;49.544;8.646;2022-07-30T11:31:24;100660.38;;;41.79;nan
55685;BME280;41883;49.544;8.646;2022-07-30T11:33:50;100654.25;;;39.88;nan
55685;BME280;41883;49.544;8.646;2022-07-30T11:36:15;100653.38;;;38.60;nan
55685;BME280;41883;49.544;8.646;2022-07-30T11:38:51;100649.69;;;37.28;nan
55685;BME280;41883;49.544;8.646;2022-07-30T11:41:17;100639.31;;;36.21;nan
55685;BME280;41883;49.544;8.646;2022-07-30T11:43:43;100644.00;;;35.31;nan
55685;BME280;41883;49.544;8.646;2022-07-30T11:46:10;100642.09;;;34.64;nan
55685;BME280;41883;49.544;8.646;2022-07-30T11:48:38;100638.53;;;36.11;nan
55685;BME280;41883;49.544;8.646;2022-07-30T11:51:04;100646.66;;;36.43;nan
55685;BME280;41883;49.544;8.646;2022-07-30T11:53:30;100645.38;;;37.87;nan
55685;BME280;41883;49.544;8.646;2022-07-30T11:55:58;100638.09;;;38.75;nan
55685;BME280;41883;49.544;8.646;2022-07-30T11:58:33;100634.84;;;37.41;nan
55685;BME280;41883;49.544;8.646;2022-07-30T12:01:12;100638.31;;;35.59;nan
55685;BME280;41883;49.544;8.646;2022-07-30T12:03:44;100629.75;;;36.18;nan
55685;BME280;41883;49.544;8.646;2022-07-30T12:06:11;100638.84;;;34.85;nan
55685;BME280;41883;49.544;8.646;2022-07-30T12:08:43;100630.81;;;33.74;nan
55685;BME280;41883;49.544;8.646;2022-07-30T12:11:09;100632.06;;;33.21;nan
55685;BME280;41883;49.544;8.646;2022-07-30T12:13:35;100632.50;;;32.77;nan
55685;BME280;41883;49.544;8.646;2022-07-30T12:16:07;100623.88;;;34.68;nan
55685;BME280;41883;49.544;8.646;2022-07-30T12:18:33;100548.81;;;37.57;nan
55685;BME280;41883;49.544;8.646;2022-07-30T12:21:00;100620.25;;;38.30;nan
55685;BME280;41883;49.544;8.646;2022-07-30T12:23:27;100616.72;;;37.70;nan
55685;BME280;41883;49.544;8.646;2022-07-30T12:25:53;100529.19;;;36.38;nan
55685;BME280;41883;49.544;8.646;2022-07-30T12:28:21;100536.56;;;34.88;nan
55685;BME280;41883;49.544;8.646;2022-07-30T12:30:46;100540.75;;;34.04;nan
55685;BME280;41883;49.544;8.646;2022-07-30T12:33:12;100540.59;;;33.31;nan
55685;BME280;41883;49.544;8.646;2022-07-30T12:35:57;100539.28;;;32.82;nan
55685;BME280;41883;49.544;8.646;2022-07-30T12:38:24;100530.19;;;33.00;nan
55685;BME280;41883;49.544;8.646;2022-07-30T12:40:58;100522.94;;;33.24;nan
55685;BME280;41883;49.544;8.646;2022-07-30T12:46:14;100602.81;;;33.63;nan
55685;BME280;41883;49.544;8.646;2022-07-30T12:51:18;100609.94;;;34.29;nan
55685;BME280;41883;49.544;8.646;2022-07-30T12:53:44;100605.13;;;34.34;nan
55685;BME280;41883;49.544;8.646;2022-07-30T12:58:40;100601.59;;;34.34;nan
55685;BME280;41883;49.544;8.646;2022-07-30T13:01:05;100603.53;;;34.33;nan
55685;BME280;41883;49.544;8.646;2022-07-30T13:03:31;100594.88;;;34.40;nan
55685;BME280;41883;49.544;8.646;2022-07-30T13:06:20;100587.56;;;34.58;nan
55685;BME280;41883;49.544;8.646;2022-07-30T13:08:48;100583.75;;;34.45;nan
55685;BME280;41883;49.544;8.646;2022-07-30T13:11:15;100590.00;;;34.59;nan
55685;BME280;41883;49.544;8.646;2022-07-30T13:13:41;100587.25;;;34.82;nan
55685;BME280;41883;49.544;8.646;2022-07-30T13:16:06;100588.63;;;34.71;nan
55685;BME280;41883;49.544;8.646;2022-07-30T13:18:33;100578.78;;;34.70;nan
55685;BME280;41883;49.544;8.646;2022-07-30T13:21:00;100581.97;;;34.63;nan
55685;BME280;41883;49.544;8.646;2022-07-30T13:23:26;100585.03;;;34.61;nan
55685;BME280;41883;49.544;8.646;2022-07-30T13:25:52;100578.41;;;34.40;nan
55685;BME280;41883;49.544;8.646;2022-07-30T13:28:18;100572.94;;;34.48;nan
55685;BME280;41883;49.544;8.646;2022-07-30T13:30:44;100576.44;;;34.40;nan
55685;BME280;41883;49.544;8.646;2022-07-30T13:33:10;100577.94;;;34.24;nan
55685;BME280;41883;49.544;8.646;2022-07-30T13:35:36;100569.81;;;34.41;nan
55685;BME280;41883;49.544;8.646;2022-07-30T13:38:01;100562.09;;;34.43;nan
55685;BME280;41883;49.544;8.646;2022-07-30T13:40:27;100562.72;;;34.40;nan